WetterOnline ( https://www.wetteronline.de )

Wetter aktuell Brühl

Aktuelles Wetter: Königswinter-Heiderhof (147m)

6-stündlich | Neueste Meldungen
Ortszeit Temperatur Wetter
Sa, 18.05. 20:00 13.9° C bedeckt
Sa, 18.05. 14:00 17.3° C leichter Regen
Sa, 18.05. 8:00 13.8° C bewölkt
Sa, 18.05. 2:00 13.7° C wolkig
Fr, 17.05. 20:00 16.2° C bedeckt
Fr, 17.05. 14:00 16.5° C bewölkt
Fr, 17.05. 8:00 13.3° C bedeckt
Fr, 17.05. 2:00 12.8° C bedeckt
Ortszeit Temperatur Wetter
So, 19.05. 0:00 12.3° C bewölkt
Sa, 18.05. 23:50 12.3° C bewölkt
Sa, 18.05. 23:40 12.5° C bedeckt
Sa, 18.05. 23:30 12.9° C bewölkt
Sa, 18.05. 23:20 12.9° C bewölkt
Sa, 18.05. 23:10 13.0° C bewölkt
Sa, 18.05. 23:00 12.9° C wolkig
Sa, 18.05. 22:30 12.9° C wolkig
Sa, 18.05. 22:00 12.6° C fast wolkenlos
Sa, 18.05. 21:30 13.6° C leicht bewölkt
Sa, 18.05. 21:00 13.9° C bewölkt
Ortszeit Relative Feuchte Sichtweite
Sa, 18.05. 20:00 93% 30 km
Sa, 18.05. 14:00 80% 8 km
Sa, 18.05. 8:00 97% 3.4 km
Sa, 18.05. 2:00 91% 60 km
Fr, 17.05. 20:00 88% 35 km
Fr, 17.05. 14:00 82% 24 km
Fr, 17.05. 8:00 97% 4.6 km
Fr, 17.05. 2:00 99% 6 km
Ortszeit Relative Feuchte Sichtweite
So, 19.05. 0:00 95% 20 km
Sa, 18.05. 23:50 95% -
Sa, 18.05. 23:40 95% -
Sa, 18.05. 23:30 94% 27 km
Sa, 18.05. 23:20 94% -
Sa, 18.05. 23:10 94% -
Sa, 18.05. 23:00 96% 22 km
Sa, 18.05. 22:30 96% 23 km
Sa, 18.05. 22:00 96% 27 km
Sa, 18.05. 21:30 95% 30 km
Sa, 18.05. 21:00 92% 35 km
Ortszeit Niederschlagsmenge Niederschlagsart
Sa, 18.05. 20:00 15 l/m2 in 12 Std. Regen
Sa, 18.05. 14:00 2 l/m2 in 6 Std. Regen
Sa, 18.05. 8:00 0.1 l/m2 in 12 Std. -
Sa, 18.05. 2:00 0.1 l/m2 in 6 Std. Regen
Fr, 17.05. 20:00 0.1 l/m2 in 12 Std. Regen
Fr, 17.05. 14:00 0.1 l/m2 in 6 Std. Regen
Fr, 17.05. 8:00 0.1 l/m2 in 12 Std. Regen
Fr, 17.05. 2:00 0.1 l/m2 in 6 Std. Regen
Ortszeit Niederschlagsmenge Niederschlagsart
So, 19.05. 0:00 0.0 l/m2 in 1 Std. -
Sa, 18.05. 23:50 keine Meldung -
Sa, 18.05. 23:40 keine Meldung -
Sa, 18.05. 23:30 0.0 l/m2 in 30 Min -
Sa, 18.05. 23:20 keine Meldung -
Sa, 18.05. 23:10 keine Meldung -
Sa, 18.05. 23:00 0.0 l/m2 in 1 Std. -
Sa, 18.05. 22:30 0.0 l/m2 in 30 Min -
Sa, 18.05. 22:00 0.0 l/m2 in 1 Std. -
Sa, 18.05. 21:30 0.0 l/m2 in 30 Min -
Sa, 18.05. 21:00 0.0 l/m2 in 1 Std. -
Ortszeit Stärke Spitze Richtung
km/h Bft. km/h Grad Sektor
Sa, 18.05. 20:00 11 2 25 200° S
Sa, 18.05. 14:00 4 1 18 280° W
Sa, 18.05. 8:00 4 1 18 10° N
Sa, 18.05. 2:00 15 3 19 200° S
Fr, 17.05. 20:00 6 1 17 220° SW
Fr, 17.05. 14:00 9 2 24 350° N
Fr, 17.05. 8:00 7 2 22 310° NW
Fr, 17.05. 2:00 4 1 11 250° W
Ortszeit Stärke Spitze Richtung
km/h Bft. km/h Grad Sektor
So, 19.05. 0:00 14 3 22 230° SW
Sa, 18.05. 23:50 14 3 - 230° SW
Sa, 18.05. 23:40 14 3 - 220° SW
Sa, 18.05. 23:30 14 3 22 230° SW
Sa, 18.05. 23:20 14 3 - 230° SW
Sa, 18.05. 23:10 15 3 - 230° SW
Sa, 18.05. 23:00 14 3 18 230° SW
Sa, 18.05. 22:30 14 3 18 210° SW
Sa, 18.05. 22:00 7 2 11 220° SW
Sa, 18.05. 21:30 4 1 7 150° SO
Sa, 18.05. 21:00 4 1 14 270° W
Ortszeit Untergrenze Bedeckung Gattung
total tief tief mittel hoch
Sa, 18.05. 20:00 3000 m 8/8 8/8 - - -
Sa, 18.05. 14:00 1800 m 7/8 7/8 - - -
Sa, 18.05. 8:00 90 m 7/8 7/8 - - -
Sa, 18.05. 2:00 2700 m 8/8 2/8 - - -
Fr, 17.05. 20:00 1500 m 8/8 8/8 - - -
Fr, 17.05. 14:00 900 m 7/8 7/8 - - -
Fr, 17.05. 8:00 90 m 8/8 8/8 - - -
Fr, 17.05. 2:00 3300 m 8/8 8/8 - - -
Ortszeit Bedeckungsgrad in Achtel und Wolkenuntergrenze
So, 19.05. 0:00 7(3600m)
Sa, 18.05. 23:50 7(3600m)
Sa, 18.05. 23:40 8
Sa, 18.05. 23:30 7(3300m)
Sa, 18.05. 23:20 7(3300m)
Sa, 18.05. 23:10 7
Sa, 18.05. 23:00 3(2100m) 7(3000m) 8(3300m)
Sa, 18.05. 22:30 5(3300m)
Sa, 18.05. 22:00 1(2100m)
Sa, 18.05. 21:30 4(1800m)
Sa, 18.05. 21:00 4(1800m) 8(3300m) 8(5400m)
Ortszeit Luftdruck NN (hPa) Tendenz (hPa in 3 Std.)
Sa, 18.05. 20:00 1010 - 0,3
Sa, 18.05. 14:00 1010 - 0,1
Sa, 18.05. 8:00 1010 + 1,2
Sa, 18.05. 2:00 1008 + 0,6
Fr, 17.05. 20:00 1007 + 0,5
Fr, 17.05. 14:00 1006 + 0,5
Fr, 17.05. 8:00 1006 0,0
Fr, 17.05. 2:00 1006 - 0,4
Ortszeit Luftdruck NN (hPa) Tendenz (hPa in 3 Std.)
So, 19.05. 0:00 1011 + 0,4
Sa, 18.05. 23:50 1011 keine Meldung
Sa, 18.05. 23:40 1011 keine Meldung
Sa, 18.05. 23:30 1011 + 0,9
Sa, 18.05. 23:20 1011 keine Meldung
Sa, 18.05. 23:10 1011 keine Meldung
Sa, 18.05. 23:00 1011 + 0,8
Sa, 18.05. 22:30 1011 + 0,8
Sa, 18.05. 22:00 1011 + 1,1
Sa, 18.05. 21:30 1010 + 0,8
Sa, 18.05. 21:00 1010 + 0,2
Ortszeit Schneehöhe (cm)
Sa, 18.05. 20:00 0
Sa, 18.05. 14:00 0
Sa, 18.05. 8:00 0
Sa, 18.05. 2:00 0
Fr, 17.05. 20:00 0
Fr, 17.05. 14:00 0
Fr, 17.05. 8:00 0
Fr, 17.05. 2:00 0
Ortszeit Schneehöhe (cm)
So, 19.05. 0:00 0
Sa, 18.05. 23:50 0
Sa, 18.05. 23:40 -
Sa, 18.05. 23:30 0
Sa, 18.05. 23:20 0
Sa, 18.05. 23:10 -
Sa, 18.05. 23:00 0
Sa, 18.05. 22:30 0
Sa, 18.05. 22:00 0
Sa, 18.05. 21:30 0
Sa, 18.05. 21:00 0
Link zu dieser Seite / Seite empfehlen

Das Wetter in ...